Brown Field Municipal Airport
KSDM : now visible

Airfield :











YOU CAN JOIN US ON...

 
LOGIN :

Register | Disclaimer

   EN    FR    IT 

 









Legend :    VFR   Marginal VFR   IFR   Intensive IFR   Very Intensive IFR
Visi :
Ceiling :
>= 8 km
>= 3000ft
5 to 8 km
1000 to 3000 ft
1500m to 5 km
500 to 1000 ft
800 to 1500m
200 to 500 ft
< 800m
< 200 ft
Symbols :   Thunderstorms  Fog  Heavy snow  Heavy precipitations  Wind > 20 kt






- Airport Elevation : 526 ft


KSDM - Brown Field Municipal

CURRENT METAR :
  • 171616Z 14009KT 6SM -RA BR FEW012 BKN031 OVC039 12/10 A3021 RMK AO2 RAB08 P0000 T01170100

EXPIRED METARs :
  • 171553Z 14008KT 10SM FEW009 BKN035 OVC043 11/09 A3020 RMK AO2 RAB01E11 SLP227 P0000 T01110094
  • 171537Z AUTO 13008KT 9SM FEW009 SCT037 OVC048 11/09 A3020 RMK AO2 RAB01E11 P0000 T01110094
  • 171453Z AUTO 14007KT 10SM FEW014 BKN037 OVC055 10/09 A3018 RMK AO2 RAE01B14E33 SLP221 P0001 60003 T01000089 53008
  • 171412Z AUTO 14008KT 7SM FEW009 BKN020 OVC032 11/09 A3017 RMK AO2 RAE01 P0000 T01060089
  • 171353Z AUTO 14006KT 6SM -RA BR SCT013 BKN018 OVC033 11/09 A3016 RMK AO2 RAB1258E15B52 SLP214 P0001 T01060089
  • 171333Z AUTO 15008KT 6SM BR SCT012 BKN019 OVC026 11/09 A3016 RMK AO2 RAB1258E15 P0001 T01060089

TAF N/A



MET'MAP, your aeronautical weather chart ! - Copyright ORBIFLY December 2007 - Disclaimer

ORBIFLY MET'MAP TEAM :

Programming & Development : Alexandra Zaïnal
Concept & original design : Baudouin d'Aumeries
Assistance for programming : Marc-Olivier Méhu
Technical & hardware support : Manuel Goepfert

Contact : metmap@orbifly.com




SOURCES & CREDITS :

   NOAA       Earth
Advisory